Time;durP1;ratioP1;P1;durP2;ratioP2;P2;SDS_P1;SDS_P2;PMS_P1;PMS_P2;Temp;Humidity;BMP_temperature;BMP_pressure;BME280_temperature;BME280_humidity;BME280_pressure;Samples;Min_cycle;Max_cycle;Signal;HPM_P1;HPM_P2
2021/07/25 00:01:03;;;;;;;7.10;3.90;;;;;;;;;;5099169;28;20226;-69
2021/07/25 00:03:31;;;;;;;6.07;3.90;;;;;;;;;;5097755;28;20201;-69
2021/07/25 00:05:59;;;;;;;5.97;3.97;;;;;;;;;;5099437;28;20244;-69
2021/07/25 00:08:29;;;;;;;6.30;4.20;;;;;;;;;;5099423;28;20292;-69
2021/07/25 00:10:57;;;;;;;4.63;3.70;;;;;;;;;;5099542;28;20203;-69
2021/07/25 00:13:25;;;;;;;7.13;4.13;;;;;;;;;;5099000;28;20202;-69
2021/07/25 00:15:53;;;;;;;4.67;3.70;;;;;;;;;;5099036;28;20593;-69
2021/07/25 00:18:36;;;;;;;3.80;3.40;;;;;;;;;;5099037;28;20297;-69
2021/07/25 00:21:04;;;;;;;4.50;3.63;;;;;;;;;;5098880;28;20581;-69
2021/07/25 00:23:33;;;;;;;5.53;3.70;;;;;;;;;;5098976;28;20555;-69
2021/07/25 00:26:01;;;;;;;4.37;3.40;;;;;;;;;;5098949;28;20219;-69
2021/07/25 00:28:33;;;;;;;4.30;3.50;;;;;;;;;;5099149;28;20271;-65
2021/07/25 00:31:05;;;;;;;5.00;3.47;;;;;;;;;;5098858;28;20231;-64
2021/07/25 00:33:33;;;;;;;4.53;3.20;;;;;;;;;;5098698;28;20292;-64
2021/07/25 00:36:02;;;;;;;4.30;3.27;;;;;;;;;;5098787;28;20228;-64
2021/07/25 00:38:30;;;;;;;5.10;3.53;;;;;;;;;;5098736;28;20236;-65
2021/07/25 00:41:07;;;;;;;5.77;3.90;;;;;;;;;;5098689;28;20223;-66
2021/07/25 00:43:35;;;;;;;4.50;3.53;;;;;;;;;;5098890;28;20217;-66
2021/07/25 00:46:03;;;;;;;7.57;3.40;;;;;;;;;;5098807;28;20294;-66
2021/07/25 00:48:31;;;;;;;6.60;3.50;;;;;;;;;;5098477;28;20244;-66
2021/07/25 00:51:00;;;;;;;4.27;3.30;;;;;;;;;;5098371;28;20286;-66
2021/07/25 00:53:28;;;;;;;7.30;3.57;;;;;;;;;;5098367;28;20648;-66
2021/07/25 00:55:56;;;;;;;4.90;3.30;;;;;;;;;;5098609;28;20270;-65
2021/07/25 00:58:26;;;;;;;4.50;3.50;;;;;;;;;;5098322;28;20683;-66
2021/07/25 01:00:53;;;;;;;7.07;3.20;;;;;;;;;;5098360;28;20223;-66
2021/07/25 01:03:29;;;;;;;5.57;3.83;;;;;;;;;;5097833;28;20224;-66
2021/07/25 01:06:05;;;;;;;5.50;3.43;;;;;;;;;;5098264;28;20204;-67
2021/07/25 01:08:36;;;;;;;4.10;3.20;;;;;;;;;;5098319;28;20211;-66
2021/07/25 01:11:06;;;;;;;6.47;3.80;;;;;;;;;;5098372;28;20242;-64
2021/07/25 01:13:38;;;;;;;4.50;3.50;;;;;;;;;;5098010;28;20210;-66
2021/07/25 01:16:06;;;;;;;5.23;4.13;;;;;;;;;;5088016;28;20196;-65
2021/07/25 01:18:44;;;;;;;5.43;3.63;;;;;;;;;;5084348;28;20664;-66
2021/07/25 01:21:14;;;;;;;6.90;3.67;;;;;;;;;;5097568;28;20223;-66
2021/07/25 01:23:42;;;;;;;6.27;3.90;;;;;;;;;;5097587;28;20221;-67
2021/07/25 01:26:11;;;;;;;5.67;4.00;;;;;;;;;;5097473;28;20223;-66
2021/07/25 01:28:42;;;;;;;5.07;3.80;;;;;;;;;;5092443;28;20205;-65
2021/07/25 01:31:13;;;;;;;4.43;3.60;;;;;;;;;;5094718;28;20272;-66
2021/07/25 01:33:42;;;;;;;6.03;4.20;;;;;;;;;;5097141;28;20237;-74
2021/07/25 01:36:11;;;;;;;4.63;3.80;;;;;;;;;;5097106;28;20539;-73
2021/07/25 01:38:40;;;;;;;4.43;3.40;;;;;;;;;;5096129;28;20780;-66
2021/07/25 01:41:09;;;;;;;4.73;3.70;;;;;;;;;;5097575;28;20247;-66
2021/07/25 01:43:38;;;;;;;6.57;3.50;;;;;;;;;;5097814;28;20304;-66
2021/07/25 01:46:06;;;;;;;6.13;4.13;;;;;;;;;;5096858;28;20261;-66
2021/07/25 01:48:36;;;;;;;5.00;3.63;;;;;;;;;;5097036;28;20199;-66
2021/07/25 01:51:04;;;;;;;5.73;3.73;;;;;;;;;;5094370;28;20203;-66
2021/07/25 01:53:32;;;;;;;5.43;3.50;;;;;;;;;;5098334;28;20224;-66
2021/07/25 01:56:01;;;;;;;5.03;3.73;;;;;;;;;;5099390;28;20207;-66
2021/07/25 01:58:29;;;;;;;4.00;3.30;;;;;;;;;;5096959;28;20205;-66
2021/07/25 02:00:57;;;;;;;7.07;4.27;;;;;;;;;;5097027;28;20224;-65
2021/07/25 02:03:26;;;;;;;5.13;3.83;;;;;;;;;;5094592;28;20635;-65
2021/07/25 02:05:54;;;;;;;6.27;4.13;;;;;;;;;;5098665;28;20203;-66
2021/07/25 02:08:22;;;;;;;5.50;4.10;;;;;;;;;;5099368;28;20562;-66
2021/07/25 02:10:50;;;;;;;5.43;4.40;;;;;;;;;;5097120;28;20546;-65
2021/07/25 02:13:20;;;;;;;5.37;3.67;;;;;;;;;;5097655;28;20233;-66
2021/07/25 02:15:49;;;;;;;8.07;4.30;;;;;;;;;;5095782;28;20253;-65
2021/07/25 02:18:17;;;;;;;4.57;4.17;;;;;;;;;;5098758;28;20240;-66
2021/07/25 02:20:46;;;;;;;5.53;3.93;;;;;;;;;;5096660;28;20296;-66
2021/07/25 02:23:14;;;;;;;6.83;3.93;;;;;;;;;;5096261;28;20252;-66
2021/07/25 02:25:42;;;;;;;5.80;3.77;;;;;;;;;;5095712;28;20212;-65
2021/07/25 02:28:10;;;;;;;6.50;4.33;;;;;;;;;;5101209;28;20197;-65
2021/07/25 02:30:39;;;;;;;4.93;4.10;;;;;;;;;;5101904;28;20287;-65
2021/07/25 02:33:07;;;;;;;5.43;3.67;;;;;;;;;;5097936;28;20220;-65
2021/07/25 02:35:35;;;;;;;4.83;3.97;;;;;;;;;;5100485;28;20211;-66
2021/07/25 02:38:03;;;;;;;6.40;4.53;;;;;;;;;;5094714;28;20222;-66
2021/07/25 02:40:31;;;;;;;5.73;3.83;;;;;;;;;;5100066;28;20205;-65
2021/07/25 02:42:59;;;;;;;4.30;3.63;;;;;;;;;;5098530;28;20231;-66
2021/07/25 02:45:27;;;;;;;5.03;4.53;;;;;;;;;;5100162;28;20201;-67
2021/07/25 02:47:56;;;;;;;8.47;4.40;;;;;;;;;;5099800;28;20562;-65
2021/07/25 02:50:24;;;;;;;5.73;3.97;;;;;;;;;;5092747;28;20206;-66
2021/07/25 02:52:52;;;;;;;7.47;4.30;;;;;;;;;;5090477;28;20227;-65
2021/07/25 02:55:20;;;;;;;4.43;4.03;;;;;;;;;;5090672;28;20205;-65
2021/07/25 02:57:48;;;;;;;7.20;4.33;;;;;;;;;;5090829;28;20274;-66
2021/07/25 03:00:17;;;;;;;5.67;4.50;;;;;;;;;;5090734;28;20222;-65
2021/07/25 03:02:44;;;;;;;5.67;4.20;;;;;;;;;;5090456;28;20228;-65
2021/07/25 03:05:14;;;;;;;7.63;4.47;;;;;;;;;;5089566;28;20203;-65
2021/07/25 03:07:42;;;;;;;6.70;4.50;;;;;;;;;;5087054;28;20235;-65
2021/07/25 03:10:10;;;;;;;5.23;4.07;;;;;;;;;;5092244;28;20203;-66
2021/07/25 03:12:38;;;;;;;4.37;3.73;;;;;;;;;;5092109;28;20280;-65
2021/07/25 03:15:07;;;;;;;4.23;3.50;;;;;;;;;;5101994;28;20212;-66
2021/07/25 03:17:35;;;;;;;6.40;4.47;;;;;;;;;;5099966;28;20272;-64
2021/07/25 03:20:03;;;;;;;6.53;4.47;;;;;;;;;;5100243;28;20213;-65
2021/07/25 03:22:34;;;;;;;3.73;3.33;;;;;;;;;;5100183;28;20229;-64
2021/07/25 03:25:02;;;;;;;4.50;3.90;;;;;;;;;;5099813;28;20223;-64
2021/07/25 03:27:30;;;;;;;4.50;3.87;;;;;;;;;;5100021;28;20207;-64
2021/07/25 03:29:58;;;;;;;6.23;3.83;;;;;;;;;;5100081;28;20207;-65
2021/07/25 03:32:26;;;;;;;4.40;3.50;;;;;;;;;;5099518;28;20257;-66
2021/07/25 03:34:54;;;;;;;5.17;3.97;;;;;;;;;;5099760;28;20216;-67
2021/07/25 03:37:23;;;;;;;5.57;3.70;;;;;;;;;;5099589;28;20209;-65
2021/07/25 03:39:55;;;;;;;3.93;3.50;;;;;;;;;;5099690;28;20748;-66
2021/07/25 03:42:23;;;;;;;6.57;3.83;;;;;;;;;;5101054;28;20221;-64
2021/07/25 03:44:52;;;;;;;4.40;3.43;;;;;;;;;;5097611;28;20206;-64
2021/07/25 03:47:20;;;;;;;5.17;4.27;;;;;;;;;;5099814;28;20205;-65
2021/07/25 03:49:48;;;;;;;4.80;4.00;;;;;;;;;;5100199;28;20288;-64
2021/07/25 03:52:16;;;;;;;5.90;4.53;;;;;;;;;;5097813;28;20553;-66
2021/07/25 03:54:46;;;;;;;7.30;4.07;;;;;;;;;;5098121;28;20658;-66
2021/07/25 03:57:15;;;;;;;5.67;4.13;;;;;;;;;;5098838;28;20200;-66
2021/07/25 03:59:44;;;;;;;5.80;4.23;;;;;;;;;;5099094;28;20206;-66
2021/07/25 04:02:12;;;;;;;4.83;4.03;;;;;;;;;;5099441;28;20227;-66
2021/07/25 04:04:40;;;;;;;7.67;4.70;;;;;;;;;;5095051;28;20201;-66
2021/07/25 04:07:08;;;;;;;4.93;4.03;;;;;;;;;;5098885;28;20202;-66
2021/07/25 04:09:36;;;;;;;6.93;4.03;;;;;;;;;;5098123;28;20275;-66
2021/07/25 04:12:04;;;;;;;6.87;5.03;;;;;;;;;;5099374;28;20221;-66
2021/07/25 04:14:34;;;;;;;7.50;4.73;;;;;;;;;;5100216;28;20296;-66
2021/07/25 04:17:02;;;;;;;5.27;4.43;;;;;;;;;;5097259;28;20198;-66
2021/07/25 04:19:30;;;;;;;5.40;4.43;;;;;;;;;;5098622;28;20208;-66
2021/07/25 04:21:58;;;;;;;6.60;4.70;;;;;;;;;;5095048;28;20293;-66
2021/07/25 04:24:26;;;;;;;5.87;4.23;;;;;;;;;;5099600;28;20208;-66
2021/07/25 04:26:54;;;;;;;5.97;4.43;;;;;;;;;;5100317;28;20203;-66
2021/07/25 04:29:23;;;;;;;8.10;4.60;;;;;;;;;;5097649;28;20204;-66
2021/07/25 04:31:52;;;;;;;6.10;5.10;;;;;;;;;;5097557;28;20633;-66
2021/07/25 04:34:20;;;;;;;8.53;5.10;;;;;;;;;;5095984;28;20204;-65
2021/07/25 04:36:49;;;;;;;6.17;4.90;;;;;;;;;;5098768;28;20216;-65
2021/07/25 04:39:17;;;;;;;10.03;4.93;;;;;;;;;;5114875;28;20233;-65
2021/07/25 04:41:46;;;;;;;6.37;4.90;;;;;;;;;;5118032;28;20226;-66
2021/07/25 04:44:17;;;;;;;8.00;4.80;;;;;;;;;;5118491;28;20231;-65
2021/07/25 04:46:47;;;;;;;7.20;4.80;;;;;;;;;;5118370;28;20804;-66
2021/07/25 04:49:16;;;;;;;6.17;4.77;;;;;;;;;;5118292;28;20207;-66
2021/07/25 04:51:45;;;;;;;5.20;4.67;;;;;;;;;;5118803;28;20229;-66
2021/07/25 04:54:15;;;;;;;5.70;4.50;;;;;;;;;;5118706;27;20206;-65
2021/07/25 04:56:50;;;;;;;10.93;5.03;;;;;;;;;;5118585;28;20201;-65
2021/07/25 04:59:19;;;;;;;5.23;4.40;;;;;;;;;;5093583;28;20208;-66
2021/07/25 05:01:50;;;;;;;6.70;4.33;;;;;;;;;;5118266;28;20237;-65
2021/07/25 05:04:21;;;;;;;6.07;4.77;;;;;;;;;;5108760;28;20229;-65
2021/07/25 05:06:50;;;;;;;6.13;4.23;;;;;;;;;;5098073;28;20210;-66
2021/07/25 05:09:18;;;;;;;8.77;5.13;;;;;;;;;;5097875;28;20568;-66
2021/07/25 05:11:47;;;;;;;6.07;4.97;;;;;;;;;;5099644;28;20230;-65
2021/07/25 05:14:20;;;;;;;6.67;5.23;;;;;;;;;;5097987;28;20198;-65
2021/07/25 05:16:53;;;;;;;7.23;5.17;;;;;;;;;;5097240;28;20204;-65
2021/07/25 05:19:27;;;;;;;11.97;5.03;;;;;;;;;;5098041;28;20221;-66
2021/07/25 05:21:58;;;;;;;7.80;5.20;;;;;;;;;;5098066;28;20312;-65
2021/07/25 05:24:28;;;;;;;8.00;5.00;;;;;;;;;;5098014;28;20236;-65
2021/07/25 05:27:01;;;;;;;7.60;5.43;;;;;;;;;;5098058;28;20207;-66
2021/07/25 05:29:31;;;;;;;6.17;4.77;;;;;;;;;;5097770;28;20207;-66
2021/07/25 05:31:58;;;;;;;6.47;4.90;;;;;;;;;;5097379;28;20236;-65
2021/07/25 05:34:28;;;;;;;5.07;4.30;;;;;;;;;;5097681;28;20295;-66
2021/07/25 05:36:56;;;;;;;5.77;3.87;;;;;;;;;;5098057;28;20202;-66
2021/07/25 05:39:24;;;;;;;3.87;2.87;;;;;;;;;;5097481;28;20236;-67
2021/07/25 05:41:52;;;;;;;3.80;3.50;;;;;;;;;;5097559;28;20225;-66
2021/07/25 05:44:20;;;;;;;5.93;3.70;;;;;;;;;;5097773;28;20229;-66
2021/07/25 05:46:48;;;;;;;8.03;3.70;;;;;;;;;;5097298;28;20206;-66
2021/07/25 05:49:16;;;;;;;6.80;3.57;;;;;;;;;;5097624;28;20216;-66
2021/07/25 05:51:45;;;;;;;4.53;3.53;;;;;;;;;;5097693;28;20228;-66
2021/07/25 05:54:13;;;;;;;6.00;3.60;;;;;;;;;;5097422;28;20201;-66
2021/07/25 05:56:41;;;;;;;5.47;3.27;;;;;;;;;;5097698;28;20212;-65
2021/07/25 05:59:10;;;;;;;3.60;3.30;;;;;;;;;;5097465;28;20210;-66
2021/07/25 06:01:39;;;;;;;3.60;3.20;;;;;;;;;;5098953;28;20221;-65
2021/07/25 06:04:07;;;;;;;6.20;3.47;;;;;;;;;;5101520;28;20246;-65
2021/07/25 06:06:35;;;;;;;5.03;3.63;;;;;;;;;;5102116;28;20236;-66
2021/07/25 06:09:07;;;;;;;3.90;3.03;;;;;;;;;;5102902;28;20244;-65
2021/07/25 06:11:35;;;;;;;4.90;3.20;;;;;;;;;;5101782;28;20227;-65
2021/07/25 06:14:03;;;;;;;5.37;3.27;;;;;;;;;;5101769;28;20285;-65
2021/07/25 06:16:31;;;;;;;4.80;3.83;;;;;;;;;;5102594;28;20198;-65
2021/07/25 06:18:59;;;;;;;5.17;3.90;;;;;;;;;;5100620;28;20210;-64
2021/07/25 06:21:27;;;;;;;5.40;3.43;;;;;;;;;;5101414;28;20214;-65
2021/07/25 06:23:56;;;;;;;5.43;4.30;;;;;;;;;;5102047;28;20222;-65
2021/07/25 06:26:25;;;;;;;5.03;4.37;;;;;;;;;;5099948;28;20205;-64
2021/07/25 06:28:54;;;;;;;6.07;3.90;;;;;;;;;;5100159;28;20207;-65
2021/07/25 06:31:22;;;;;;;5.37;3.70;;;;;;;;;;5100906;28;20307;-64
2021/07/25 06:33:49;;;;;;;4.47;3.40;;;;;;;;;;5099373;28;20199;-65
2021/07/25 06:36:19;;;;;;;6.13;3.87;;;;;;;;;;5101317;28;20205;-65
2021/07/25 06:38:47;;;;;;;5.00;4.00;;;;;;;;;;5101805;28;20231;-65
2021/07/25 06:41:15;;;;;;;6.90;3.43;;;;;;;;;;5099120;28;20285;-65
2021/07/25 06:43:45;;;;;;;7.73;3.93;;;;;;;;;;5100135;28;20225;-65
2021/07/25 06:46:13;;;;;;;6.30;3.47;;;;;;;;;;5100437;28;20207;-65
2021/07/25 06:48:41;;;;;;;4.60;4.17;;;;;;;;;;5097549;28;20730;-64
2021/07/25 06:51:08;;;;;;;4.33;3.40;;;;;;;;;;5100810;28;20210;-64
2021/07/25 06:53:37;;;;;;;4.87;4.00;;;;;;;;;;5099967;28;20201;-65
2021/07/25 06:56:06;;;;;;;5.00;3.40;;;;;;;;;;5100172;28;20201;-65
2021/07/25 06:58:35;;;;;;;4.93;3.63;;;;;;;;;;5098098;28;20207;-65
2021/07/25 07:01:04;;;;;;;3.70;3.23;;;;;;;;;;5099788;28;20285;-65
2021/07/25 07:03:33;;;;;;;3.43;3.10;;;;;;;;;;5098488;28;20632;-65
2021/07/25 07:06:01;;;;;;;4.77;3.40;;;;;;;;;;5099992;28;20206;-65
2021/07/25 07:08:29;;;;;;;3.60;2.93;;;;;;;;;;5100441;28;20210;-65
2021/07/25 07:10:57;;;;;;;5.90;3.50;;;;;;;;;;5101086;28;20203;-64
2021/07/25 07:13:25;;;;;;;6.53;3.10;;;;;;;;;;5100801;28;20204;-64
2021/07/25 07:15:53;;;;;;;6.03;2.83;;;;;;;;;;5100254;28;20204;-64
2021/07/25 07:18:23;;;;;;;5.60;3.10;;;;;;;;;;5100084;28;20216;-64
2021/07/25 07:20:50;;;;;;;4.17;2.80;;;;;;;;;;5100339;28;20210;-64
2021/07/25 07:23:21;;;;;;;4.27;3.30;;;;;;;;;;5099810;28;20232;-64
2021/07/25 07:25:49;;;;;;;6.03;3.13;;;;;;;;;;5100214;28;20312;-66
2021/07/25 07:28:18;;;;;;;4.67;2.77;;;;;;;;;;5102814;28;20298;-67
2021/07/25 07:30:47;;;;;;;3.43;3.10;;;;;;;;;;5108074;28;20196;-66
2021/07/25 07:33:16;;;;;;;4.97;3.10;;;;;;;;;;5102392;28;20308;-64
2021/07/25 07:35:45;;;;;;;4.83;2.90;;;;;;;;;;5107759;28;20196;-65
2021/07/25 07:38:14;;;;;;;6.33;3.20;;;;;;;;;;5107372;28;20570;-65
2021/07/25 07:40:44;;;;;;;4.47;3.30;;;;;;;;;;5104425;28;20202;-67
2021/07/25 07:43:12;;;;;;;6.00;3.10;;;;;;;;;;5107877;28;20311;-66
2021/07/25 07:45:41;;;;;;;5.67;3.47;;;;;;;;;;5107462;28;20585;-66
2021/07/25 07:48:10;;;;;;;4.90;2.70;;;;;;;;;;5108111;28;20201;-66
2021/07/25 07:50:38;;;;;;;4.27;3.23;;;;;;;;;;5099647;28;20211;-65
2021/07/25 07:53:07;;;;;;;4.50;2.90;;;;;;;;;;5099426;28;20230;-66
2021/07/25 07:55:35;;;;;;;3.33;3.03;;;;;;;;;;5099256;28;20205;-67
2021/07/25 07:58:03;;;;;;;4.73;3.30;;;;;;;;;;5099514;28;20221;-67
2021/07/25 08:00:31;;;;;;;5.10;3.53;;;;;;;;;;5099276;28;20261;-66
2021/07/25 08:02:59;;;;;;;3.53;3.23;;;;;;;;;;5104009;28;20314;-67
2021/07/25 08:05:28;;;;;;;4.67;3.07;;;;;;;;;;5105888;28;20707;-67
2021/07/25 08:07:55;;;;;;;4.30;3.43;;;;;;;;;;5107937;28;20200;-67
2021/07/25 08:10:25;;;;;;;4.80;3.30;;;;;;;;;;5105837;28;20199;-67
2021/07/25 08:12:53;;;;;;;4.93;3.47;;;;;;;;;;5107133;28;20559;-67
2021/07/25 08:15:21;;;;;;;6.63;3.43;;;;;;;;;;5104889;28;20201;-67
2021/07/25 08:17:49;;;;;;;3.47;2.90;;;;;;;;;;5106310;28;20202;-67
2021/07/25 08:20:17;;;;;;;4.20;3.03;;;;;;;;;;5107223;28;20198;-67
2021/07/25 08:22:45;;;;;;;4.10;3.23;;;;;;;;;;5106799;28;20694;-67
2021/07/25 08:25:13;;;;;;;5.67;3.70;;;;;;;;;;5099535;28;20231;-67
2021/07/25 08:27:42;;;;;;;4.20;3.07;;;;;;;;;;5089730;28;20612;-67
2021/07/25 08:30:11;;;;;;;4.80;3.10;;;;;;;;;;5089778;28;20201;-67
2021/07/25 08:32:39;;;;;;;3.87;2.73;;;;;;;;;;5093866;28;20217;-67
2021/07/25 08:35:10;;;;;;;3.53;2.77;;;;;;;;;;5090013;28;20199;-67
2021/07/25 08:37:39;;;;;;;10.93;6.93;;;;;;;;;;5089709;28;20201;-67
2021/07/25 08:40:07;;;;;;;3.97;3.30;;;;;;;;;;5102374;28;20231;-72
2021/07/25 08:42:37;;;;;;;3.70;2.73;;;;;;;;;;5107106;28;20235;-70
2021/07/25 08:45:09;;;;;;;4.77;2.80;;;;;;;;;;5107206;28;20219;-70
2021/07/25 08:47:38;;;;;;;3.67;3.30;;;;;;;;;;5097991;28;20207;-69
2021/07/25 08:50:08;;;;;;;3.27;2.60;;;;;;;;;;5098274;28;20272;-69
2021/07/25 08:52:37;;;;;;;3.17;2.60;;;;;;;;;;5092743;28;20304;-70
2021/07/25 08:55:06;;;;;;;4.37;3.03;;;;;;;;;;5098284;28;20218;-71
2021/07/25 08:57:34;;;;;;;2.53;2.23;;;;;;;;;;5097480;28;20572;-70
2021/07/25 09:00:04;;;;;;;3.03;2.73;;;;;;;;;;5097835;28;20232;-70
2021/07/25 09:02:34;;;;;;;7.27;2.87;;;;;;;;;;5097628;28;20284;-70
2021/07/25 09:05:03;;;;;;;6.17;2.80;;;;;;;;;;5097643;28;20305;-70
2021/07/25 09:07:31;;;;;;;3.23;2.83;;;;;;;;;;5096689;28;20201;-70
2021/07/25 09:10:00;;;;;;;3.23;2.70;;;;;;;;;;5102835;28;20222;-69
2021/07/25 09:12:30;;;;;;;3.03;2.47;;;;;;;;;;5107534;28;20261;-70
2021/07/25 09:14:59;;;;;;;3.53;2.50;;;;;;;;;;5101211;28;20194;-67
2021/07/25 09:17:28;;;;;;;2.50;2.30;;;;;;;;;;5102655;28;20232;-68
2021/07/25 09:20:14;;;;;;;4.97;3.17;;;;;;;;;;5097535;28;20673;-66
2021/07/25 09:22:56;;;;;;;2.63;2.37;;;;;;;;;;5099229;28;20227;-65
2021/07/25 09:25:27;;;;;;;3.33;2.40;;;;;;;;;;5114232;28;20233;-65
2021/07/25 09:28:09;;;;;;;4.03;2.70;;;;;;;;;;5097793;28;20221;-65
2021/07/25 09:30:37;;;;;;;2.97;2.33;;;;;;;;;;5098152;28;20210;-65
2021/07/25 09:33:20;;;;;;;3.87;2.73;;;;;;;;;;5097480;28;20223;-65
2021/07/25 09:35:48;;;;;;;3.20;2.90;;;;;;;;;;5097357;28;20210;-66
2021/07/25 09:38:19;;;;;;;4.53;2.57;;;;;;;;;;5097542;28;20215;-66
2021/07/25 09:40:48;;;;;;;2.87;2.13;;;;;;;;;;5097887;28;20209;-65
2021/07/25 09:43:17;;;;;;;3.60;2.60;;;;;;;;;;5097679;28;20230;-66
2021/07/25 09:45:55;;;;;;;3.30;3.00;;;;;;;;;;5098281;28;20259;-65
2021/07/25 09:48:23;;;;;;;3.63;2.47;;;;;;;;;;5098173;28;20237;-66
2021/07/25 09:50:52;;;;;;;3.27;2.97;;;;;;;;;;5097888;28;20572;-65
2021/07/25 09:53:21;;;;;;;2.93;2.47;;;;;;;;;;5097545;28;20715;-65
2021/07/25 09:55:50;;;;;;;5.03;2.80;;;;;;;;;;5098614;28;20202;-66
2021/07/25 09:58:31;;;;;;;3.97;2.80;;;;;;;;;;5098435;28;20246;-66
2021/07/25 10:00:59;;;;;;;4.93;2.73;;;;;;;;;;5097349;28;20577;-65
2021/07/25 10:03:32;;;;;;;4.40;2.90;;;;;;;;;;5098192;28;20636;-66
2021/07/25 10:06:00;;;;;;;3.53;2.33;;;;;;;;;;5099462;28;20232;-65
2021/07/25 10:08:30;;;;;;;3.97;2.40;;;;;;;;;;5098164;28;20295;-66
2021/07/25 10:11:00;;;;;;;4.23;2.67;;;;;;;;;;5098207;28;20206;-66
2021/07/25 10:13:29;;;;;;;2.77;2.47;;;;;;;;;;5098133;28;20205;-65
2021/07/25 10:15:58;;;;;;;3.73;2.50;;;;;;;;;;5098083;28;20215;-65
2021/07/25 10:18:31;;;;;;;2.83;2.20;;;;;;;;;;5097795;28;20208;-65
2021/07/25 10:21:00;;;;;;;3.13;1.80;;;;;;;;;;5098032;28;20232;-65
2021/07/25 10:23:32;;;;;;;2.80;2.17;;;;;;;;;;5097861;28;20296;-65
2021/07/25 10:26:02;;;;;;;2.10;1.90;;;;;;;;;;5098057;28;20226;-66
2021/07/25 10:28:31;;;;;;;3.07;2.47;;;;;;;;;;5098913;28;20271;-65
2021/07/25 10:30:59;;;;;;;4.10;2.37;;;;;;;;;;5098239;28;20206;-65
2021/07/25 10:33:28;;;;;;;2.90;1.90;;;;;;;;;;5098904;28;20205;-65
2021/07/25 10:35:56;;;;;;;3.70;2.07;;;;;;;;;;5097938;28;20682;-64
2021/07/25 10:38:24;;;;;;;2.30;2.10;;;;;;;;;;5097487;28;20289;-65
2021/07/25 10:40:54;;;;;;;3.57;2.07;;;;;;;;;;5097768;28;20215;-64
2021/07/25 10:43:23;;;;;;;4.37;2.00;;;;;;;;;;5097615;28;20229;-64
2021/07/25 10:46:06;;;;;;;2.57;2.37;;;;;;;;;;5097799;28;20588;-64
2021/07/25 10:48:34;;;;;;;4.90;1.70;;;;;;;;;;5100033;28;20203;-64
2021/07/25 10:51:10;;;;;;;3.00;2.07;;;;;;;;;;5101558;28;20287;-67
2021/07/25 10:53:40;;;;;;;2.67;2.00;;;;;;;;;;5102085;28;20288;-64
2021/07/25 10:56:10;;;;;;;2.23;2.03;;;;;;;;;;5102135;28;20207;-64
2021/07/25 10:58:53;;;;;;;2.40;2.13;;;;;;;;;;5101469;28;20210;-64
2021/07/25 11:01:39;;;;;;;2.97;2.30;;;;;;;;;;5101118;28;20233;-64
2021/07/25 11:04:07;;;;;;;4.10;2.20;;;;;;;;;;5101350;28;20205;-64
2021/07/25 11:06:36;;;;;;;3.07;2.77;;;;;;;;;;5101052;28;20231;-64
2021/07/25 11:09:04;;;;;;;3.03;2.30;;;;;;;;;;5101252;28;20238;-64
2021/07/25 11:11:53;;;;;;;3.87;2.27;;;;;;;;;;5100813;28;20229;-64
2021/07/25 11:14:39;;;;;;;3.33;2.33;;;;;;;;;;5100917;28;20295;-65
2021/07/25 11:17:09;;;;;;;3.33;2.13;;;;;;;;;;5100628;28;20242;-64
2021/07/25 11:19:49;;;;;;;3.83;2.60;;;;;;;;;;5100908;28;20664;-67
2021/07/25 11:22:34;;;;;;;4.00;2.87;;;;;;;;;;5100882;28;20590;-65
2021/07/25 11:25:02;;;;;;;2.43;2.20;;;;;;;;;;5087285;28;20205;-64
2021/07/25 11:27:45;;;;;;;4.73;2.30;;;;;;;;;;5101038;28;20229;-65
2021/07/25 11:30:13;;;;;;;2.77;2.47;;;;;;;;;;5100974;28;20211;-65
2021/07/25 11:32:42;;;;;;;3.10;2.40;;;;;;;;;;5100105;28;20238;-64
2021/07/25 11:35:10;;;;;;;2.63;2.30;;;;;;;;;;5100821;28;20207;-64
2021/07/25 11:37:40;;;;;;;2.53;2.27;;;;;;;;;;5100257;28;20205;-65
2021/07/25 11:40:10;;;;;;;3.67;2.07;;;;;;;;;;5099837;28;20308;-64
2021/07/25 11:42:38;;;;;;;3.00;2.67;;;;;;;;;;5100106;28;20228;-65
2021/07/25 11:45:07;;;;;;;3.37;2.43;;;;;;;;;;5100074;28;20553;-64
2021/07/25 11:47:35;;;;;;;3.37;2.27;;;;;;;;;;5099531;28;20236;-64
2021/07/25 11:50:05;;;;;;;3.00;2.30;;;;;;;;;;5099968;28;20207;-64
2021/07/25 11:52:33;;;;;;;4.70;2.30;;;;;;;;;;5100536;28;20232;-64
2021/07/25 11:55:01;;;;;;;4.00;2.10;;;;;;;;;;5100514;28;20298;-64
2021/07/25 11:57:29;;;;;;;2.60;2.40;;;;;;;;;;5100042;28;20217;-64
2021/07/25 11:59:58;;;;;;;3.57;2.80;;;;;;;;;;5099700;28;20223;-64
2021/07/25 12:02:27;;;;;;;2.13;2.03;;;;;;;;;;5099183;28;20231;-66
2021/07/25 12:04:57;;;;;;;2.97;2.10;;;;;;;;;;5099780;28;20237;-66
2021/07/25 12:07:44;;;;;;;2.40;2.20;;;;;;;;;;5099694;28;20259;-64
2021/07/25 12:10:12;;;;;;;3.97;2.50;;;;;;;;;;5099034;28;20208;-64
2021/07/25 12:12:41;;;;;;;3.37;2.40;;;;;;;;;;5098741;28;20227;-64
2021/07/25 12:15:11;;;;;;;3.63;3.00;;;;;;;;;;5099120;28;20220;-65
2021/07/25 12:17:44;;;;;;;2.50;2.30;;;;;;;;;;5098730;28;20206;-64
2021/07/25 12:20:13;;;;;;;4.33;3.20;;;;;;;;;;5098910;28;20665;-64
2021/07/25 12:22:49;;;;;;;2.53;2.33;;;;;;;;;;5098801;28;20339;-64
2021/07/25 12:25:17;;;;;;;2.73;2.50;;;;;;;;;;5099073;28;20211;-64
2021/07/25 12:27:46;;;;;;;2.77;2.57;;;;;;;;;;5098561;28;20232;-65
2021/07/25 12:30:17;;;;;;;3.70;2.33;;;;;;;;;;5099153;28;20211;-64
2021/07/25 12:32:46;;;;;;;3.00;2.40;;;;;;;;;;5098720;28;20251;-66
2021/07/25 12:35:20;;;;;;;3.10;2.70;;;;;;;;;;5098874;28;20272;-65
2021/07/25 12:37:56;;;;;;;4.13;2.53;;;;;;;;;;5098286;28;20206;-64
2021/07/25 12:40:25;;;;;;;2.87;2.57;;;;;;;;;;5098052;28;20234;-65
2021/07/25 12:43:03;;;;;;;2.43;2.17;;;;;;;;;;5097993;28;20227;-64
2021/07/25 12:45:39;;;;;;;3.60;2.50;;;;;;;;;;5098250;28;20288;-65
2021/07/25 12:48:14;;;;;;;3.83;2.40;;;;;;;;;;5097474;28;20238;-64
2021/07/25 12:50:51;;;;;;;3.90;2.97;;;;;;;;;;5098345;28;20205;-64
2021/07/25 12:53:21;;;;;;;2.37;2.03;;;;;;;;;;5098275;28;20235;-66
2021/07/25 12:55:49;;;;;;;3.13;2.30;;;;;;;;;;5098251;28;20216;-66
2021/07/25 12:58:18;;;;;;;5.33;2.40;;;;;;;;;;5098404;28;20214;-64
2021/07/25 13:03:44;;;;;;;2.47;2.20;;;;;;;;;;5098363;28;20212;-64
2021/07/25 13:04:08;;;;;;;3.13;2.60;;;;;;;;;;5098080;28;20208;-64
2021/07/25 13:06:39;;;;;;;4.00;3.10;;;;;;;;;;5098170;28;20207;-63
2021/07/25 13:09:09;;;;;;;2.40;2.20;;;;;;;;;;5098303;28;20268;-64
2021/07/25 13:11:40;;;;;;;3.50;3.03;;;;;;;;;;5097083;28;20254;-63
2021/07/25 13:14:08;;;;;;;3.87;2.70;;;;;;;;;;5098122;28;20292;-64
2021/07/25 13:16:37;;;;;;;2.87;2.60;;;;;;;;;;5097799;28;20276;-64
2021/07/25 13:19:05;;;;;;;3.50;2.43;;;;;;;;;;5098163;28;20215;-64
2021/07/25 13:21:34;;;;;;;2.50;2.17;;;;;;;;;;5098121;28;20766;-64
2021/07/25 13:24:02;;;;;;;3.03;2.27;;;;;;;;;;5098300;28;20209;-65
2021/07/25 13:26:31;;;;;;;2.93;2.33;;;;;;;;;;5098107;28;20292;-64
2021/07/25 13:28:59;;;;;;;3.33;2.30;;;;;;;;;;5097793;28;20236;-64
2021/07/25 13:31:27;;;;;;;2.53;2.33;;;;;;;;;;5097612;28;20619;-64
2021/07/25 13:33:55;;;;;;;4.10;2.20;;;;;;;;;;5097690;28;20211;-64
2021/07/25 13:36:23;;;;;;;2.33;2.13;;;;;;;;;;5097966;28;20582;-64
2021/07/25 13:38:51;;;;;;;2.00;1.90;;;;;;;;;;5097845;28;20204;-64
2021/07/25 13:41:20;;;;;;;3.15;2.40;;;;;;;;;;5097537;28;20246;-64
2021/07/25 13:43:51;;;;;;;3.13;2.50;;;;;;;;;;5097714;28;20214;-64
2021/07/25 13:46:22;;;;;;;3.07;2.13;;;;;;;;;;5097510;28;20207;-64
2021/07/25 13:48:50;;;;;;;3.83;2.47;;;;;;;;;;5097767;28;20228;-64
2021/07/25 13:51:20;;;;;;;2.63;2.42;;;;;;;;;;5097588;28;20594;-64
2021/07/25 13:53:48;;;;;;;3.22;2.20;;;;;;;;;;5097524;28;20297;-65
2021/07/25 13:56:17;;;;;;;3.47;2.70;;;;;;;;;;5097974;28;20212;-64
2021/07/25 13:58:45;;;;;;;2.53;2.33;;;;;;;;;;5097781;28;20211;-64
2021/07/25 14:01:15;;;;;;;2.83;2.57;;;;;;;;;;5097551;28;20200;-64
2021/07/25 14:03:44;;;;;;;2.70;2.40;;;;;;;;;;5097455;28;20206;-64
2021/07/25 14:06:12;;;;;;;2.58;2.35;;;;;;;;;;5097492;28;20205;-65
2021/07/25 14:08:40;;;;;;;2.33;2.13;;;;;;;;;;5097349;28;20593;-64
2021/07/25 14:11:10;;;;;;;3.10;2.80;;;;;;;;;;5097736;28;20201;-65
2021/07/25 14:13:38;;;;;;;3.03;2.33;;;;;;;;;;5097596;28;20285;-64
2021/07/25 14:16:06;;;;;;;2.97;2.28;;;;;;;;;;5097024;28;20258;-64
2021/07/25 14:18:37;;;;;;;3.63;2.78;;;;;;;;;;5097010;28;20227;-64
2021/07/25 14:21:09;;;;;;;4.00;2.53;;;;;;;;;;5096817;28;20202;-64
2021/07/25 14:23:37;;;;;;;2.10;1.90;;;;;;;;;;5100375;28;20205;-65
2021/07/25 14:26:05;;;;;;;2.65;2.30;;;;;;;;;;5101428;28;20304;-65
2021/07/25 14:28:33;;;;;;;2.90;2.13;;;;;;;;;;5101389;28;20321;-65
2021/07/25 14:31:01;;;;;;;3.65;2.72;;;;;;;;;;5100669;28;20287;-65
2021/07/25 14:33:29;;;;;;;2.40;2.20;;;;;;;;;;5101564;28;20279;-64
2021/07/25 14:35:59;;;;;;;2.88;2.50;;;;;;;;;;5101437;28;20357;-64
2021/07/25 14:38:27;;;;;;;2.40;2.10;;;;;;;;;;5101459;28;20203;-65
2021/07/25 14:40:55;;;;;;;2.70;1.97;;;;;;;;;;5100951;28;20316;-64
2021/07/25 14:43:23;;;;;;;3.20;2.10;;;;;;;;;;5101284;28;20210;-64
2021/07/25 14:45:51;;;;;;;2.07;1.97;;;;;;;;;;5101265;28;20711;-64
2021/07/25 14:48:19;;;;;;;2.47;2.20;;;;;;;;;;5100753;28;20228;-64
2021/07/25 14:50:47;;;;;;;2.77;2.40;;;;;;;;;;5100816;28;20215;-64
2021/07/25 14:53:18;;;;;;;4.70;2.15;;;;;;;;;;5101274;28;20251;-65
2021/07/25 14:55:46;;;;;;;2.63;2.15;;;;;;;;;;5092353;28;20297;-64
2021/07/25 14:58:14;;;;;;;1.57;1.47;;;;;;;;;;5100878;28;20678;-64